Time;durP1;ratioP1;P1;durP2;ratioP2;P2;SDS_P1;SDS_P2;PMS_P1;PMS_P2;Temp;Humidity;BMP_temperature;BMP_pressure;BME280_temperature;BME280_humidity;BME280_pressure;Samples;Min_cycle;Max_cycle;Signal;HPM_P1;HPM_P2
2021/08/09 00:00:49;;;;;;;1.03;0.70;;;13.20;99.90;;;11.75;100.00;100664.50;3798527;22;1127265;-84
2021/08/09 00:03:53;;;;;;;0.63;0.63;;;12.70;99.90;;;11.74;100.00;100657.50;4002928;22;21706;-86
2021/08/09 00:06:29;;;;;;;3.17;0.90;;;13.40;99.90;;;11.61;100.00;100649.00;3938007;22;20240;-86
2021/08/09 00:09:32;;;;;;;3.23;0.60;;;13.70;99.90;;;11.56;100.00;100644.09;3569977;22;20404;-84
2021/08/09 00:12:44;;;;;;;1.13;0.60;;;12.70;99.90;;;11.55;100.00;100634.38;3922907;22;20312;-88
2021/08/09 00:15:22;;;;;;;2.37;0.97;;;12.60;99.90;;;11.51;100.00;100639.19;2306103;22;20359;-87
2021/08/09 00:17:49;;;;;;;2.47;0.70;;;13.70;99.90;;;11.46;100.00;100638.00;2317864;22;20248;-85
2021/08/09 00:20:52;;;;;;;1.57;0.73;;;12.20;99.90;;;11.40;100.00;100646.66;3892492;22;20441;-87
2021/08/09 00:24:04;;;;;;;1.73;1.03;;;12.50;99.90;;;11.25;100.00;100642.84;2226432;22;20419;-81
2021/08/09 00:27:17;;;;;;;1.13;0.77;;;13.60;99.90;;;11.30;100.00;100653.94;3865170;22;20283;-88
2021/08/09 00:29:53;;;;;;;1.77;0.90;;;12.40;99.90;;;11.26;100.00;100652.53;2007239;22;22173;-86
2021/08/09 00:32:22;;;;;;;0.53;0.53;;;12.30;99.90;;;11.24;100.00;100659.91;3170361;22;20252;-84
2021/08/09 00:34:49;;;;;;;1.10;0.83;;;12.30;99.90;;;11.19;100.00;100662.19;3787357;22;23242;-87
2021/08/09 00:37:17;;;;;;;0.70;0.70;;;12.30;99.90;;;11.13;100.00;100669.00;1956026;22;21297;-88
2021/08/09 00:39:44;;;;;;;1.13;0.73;;;12.20;99.90;;;10.95;100.00;100665.47;1852942;22;21672;-87
2021/08/09 00:42:12;;;;;;;1.97;0.70;;;12.20;99.90;;;10.97;100.00;100669.69;1910950;22;22695;-88
2021/08/09 00:44:40;;;;;;;1.50;0.80;;;12.50;99.90;;;10.91;100.00;100681.00;1979945;22;22238;-88
2021/08/09 00:47:46;;;;;;;1.30;1.00;;;13.30;99.90;;;11.07;100.00;100699.09;3939257;22;20255;-84
2021/08/09 00:50:22;;;;;;;1.17;0.83;;;12.60;99.90;;;10.92;100.00;100716.63;3844432;22;20241;-88
2021/08/09 00:52:51;;;;;;;1.20;0.80;;;11.90;99.90;;;10.87;100.00;100733.19;3062085;22;22548;-88
2021/08/09 00:55:20;;;;;;;4.37;0.90;;;12.00;99.90;;;10.83;100.00;100745.16;3804528;22;21007;-84
2021/08/09 00:58:26;;;;;;;1.37;0.60;;;12.30;99.90;;;10.62;100.00;100760.63;4044531;22;20238;-87
2021/08/09 01:01:05;;;;;;;2.40;1.30;;;11.90;99.90;;;10.65;100.00;100790.59;2004534;22;26295;-85
2021/08/09 01:04:12;;;;;;;2.80;1.40;;;11.80;99.90;;;10.51;100.00;100807.09;4004990;22;20265;-88
2021/08/09 01:06:49;;;;;;;1.43;1.03;;;12.40;99.90;;;10.51;100.00;100825.84;3976535;22;20235;-86
2021/08/09 01:10:02;;;;;;;4.00;0.90;;;12.90;99.90;;;10.46;100.00;100849.53;1820287;22;20419;-87
2021/08/09 01:12:50;;;;;;;0.90;0.63;;;11.70;99.90;;;10.53;100.00;100877.38;3020832;22;23462;-87
2021/08/09 01:15:26;;;;;;;1.57;0.93;;;11.60;99.90;;;10.51;100.00;100899.94;3302823;22;20258;-86
2021/08/09 01:17:56;;;;;;;1.47;1.00;;;11.70;99.90;;;10.37;100.00;100912.75;1972877;22;21388;-83
2021/08/09 01:20:47;;;;;;;1.83;1.00;;;12.20;99.90;;;10.44;100.00;100918.38;1763441;22;20227;-89
2021/08/09 01:23:45;;;;;;;3.63;0.90;;;11.60;99.90;;;10.44;100.00;100926.41;1909200;22;24636;-88
2021/08/09 01:26:27;;;;;;;0.83;0.83;;;11.70;99.90;;;10.39;100.00;100918.78;2278563;22;20327;-88
2021/08/09 01:28:57;;;;;;;1.67;1.37;;;11.50;99.90;;;10.47;100.00;100926.13;1839460;22;20394;-84
2021/08/09 01:31:43;;;;;;;3.17;1.20;;;11.60;99.90;;;10.55;100.00;100922.72;1747267;22;22694;-88
2021/08/09 01:34:14;;;;;;;0.73;0.70;;;11.60;99.90;;;10.61;100.00;100912.31;2969720;22;20735;31
2021/08/09 01:37:22;;;;;;;2.97;1.20;;;11.60;99.90;;;10.51;100.00;100905.28;1870199;22;20462;31
2021/08/09 01:39:59;;;;;;;1.07;0.97;;;11.60;99.90;;;10.42;100.00;100893.59;2030229;22;21550;-85
2021/08/09 01:42:26;;;;;;;1.07;0.93;;;11.50;99.90;;;10.44;100.00;100894.28;4029556;22;20278;-87
2021/08/09 01:44:56;;;;;;;3.90;1.40;;;11.70;99.90;;;10.64;100.00;100892.44;1803204;22;20234;31
2021/08/09 01:47:26;;;;;;;2.23;1.37;;;11.60;99.90;;;10.43;100.00;100888.09;2687054;22;20247;-87
2021/08/09 01:50:34;;;;;;;1.03;0.93;;;11.40;99.90;;;10.35;100.00;100879.94;3833716;22;20223;-86
2021/08/09 01:53:11;;;;;;;1.60;1.03;;;11.40;99.90;;;10.23;100.00;100874.91;3521309;22;22668;31
2021/08/09 01:55:40;;;;;;;1.37;0.80;;;11.40;99.90;;;10.23;100.00;100888.25;3431080;22;23171;-89
2021/08/09 01:58:09;;;;;;;1.33;1.00;;;11.30;99.90;;;10.25;100.00;100897.00;2743952;22;20811;-84
2021/08/09 02:00:38;;;;;;;1.07;0.97;;;11.30;99.90;;;10.27;100.00;100911.03;3989396;22;20227;-88
2021/08/09 02:03:08;;;;;;;1.20;1.10;;;12.20;99.90;;;10.16;100.00;100919.19;1925995;22;21087;-88
2021/08/09 02:05:36;;;;;;;1.00;0.90;;;12.30;99.90;;;10.07;100.00;100935.09;3421158;22;20251;-84
2021/08/09 02:10:58;;;;;;;1.40;1.00;;;11.20;99.90;;;10.11;100.00;100950.88;3991100;22;22063;-87
2021/08/09 02:14:08;;;;;;;1.57;1.13;;;11.10;99.90;;;10.06;100.00;100951.25;2078118;22;20239;-84
2021/08/09 02:16:54;;;;;;;2.87;1.60;;;12.30;99.90;;;9.96;100.00;100955.75;3750481;22;20647;-83
2021/08/09 02:19:28;;;;;;;1.27;1.17;;;12.30;99.90;;;9.84;100.00;100967.56;4059577;22;23152;-87
2021/08/09 02:22:07;;;;;;;3.10;1.43;;;11.00;99.90;;;9.73;100.00;100969.34;1933463;22;20517;-84
2021/08/09 02:24:44;;;;;;;2.10;1.17;;;11.80;99.90;;;9.72;100.00;100978.34;3634609;39;20265;-84
2021/08/09 02:27:43;;;;;;;2.77;1.20;;;11.50;99.90;;;9.82;100.00;100993.56;3993190;22;22346;-86
2021/08/09 02:30:25;;;;;;;1.80;1.20;;;10.90;99.90;;;9.74;100.00;100994.25;3025990;22;20240;-83
2021/08/09 02:32:56;;;;;;;0.87;0.80;;;11.90;99.90;;;9.73;100.00;100996.09;4057748;22;22491;-87
2021/08/09 02:35:26;;;;;;;0.97;0.70;;;11.50;99.90;;;9.81;100.00;101024.78;2036562;22;25448;-86
2021/08/09 02:38:00;;;;;;;0.73;0.70;;;12.00;99.90;;;9.72;100.00;101034.47;1854809;22;21218;-86
2021/08/09 02:40:30;;;;;;;0.90;0.83;;;10.80;99.90;;;9.76;100.00;101042.22;1960962;22;21758;-87
2021/08/09 02:42:58;;;;;;;4.37;1.40;;;10.30;99.90;;;9.72;100.00;101042.50;3975740;22;20254;-87
2021/08/09 02:45:28;;;;;;;2.10;0.97;;;10.30;99.90;;;9.74;100.00;101031.66;3052506;22;22350;-87
2021/08/09 02:47:55;;;;;;;1.20;0.87;;;10.80;99.90;;;9.75;100.00;101008.47;3071895;22;20799;-87
2021/08/09 02:50:25;;;;;;;1.03;0.90;;;11.90;99.90;;;9.75;100.00;100998.63;3578584;22;20500;-85
2021/08/09 02:52:53;;;;;;;0.80;0.70;;;10.80;99.90;;;9.65;100.00;100992.38;3925751;22;20251;-87
2021/08/09 02:55:23;;;;;;;1.30;1.20;;;10.50;99.90;;;9.57;100.00;100995.72;3219557;22;22550;-88
2021/08/09 02:57:52;;;;;;;4.70;1.33;;;10.30;99.90;;;9.50;100.00;102111.41;2695747;22;22543;-88
2021/08/09 03:00:35;;;;;;;1.63;1.23;;;10.80;99.90;;;9.46;100.00;102123.25;1730270;22;27158;-84
2021/08/09 03:03:03;;;;;;;2.00;1.50;;;10.70;99.90;;;9.47;100.00;102149.03;2592198;22;20903;-88
2021/08/09 03:06:10;;;;;;;1.50;0.83;;;10.00;99.90;;;9.44;100.00;102183.97;3154145;22;21185;-85
2021/08/09 03:09:22;;;;;;;1.50;0.87;;;10.70;99.90;;;9.43;100.00;102219.66;3820660;22;20240;-87
2021/08/09 03:12:00;;;;;;;2.20;0.97;;;10.70;99.90;;;9.37;100.00;102238.78;3301991;22;22836;-87
2021/08/09 03:14:31;;;;;;;2.20;1.10;;;10.60;99.90;;;9.39;100.00;102244.03;2874072;22;26506;-87
2021/08/09 03:19:48;;;;;;;1.13;0.90;;;10.60;99.90;;;9.33;100.00;102272.00;3939485;22;20237;-88
2021/08/09 03:22:17;;;;;;;2.10;1.70;;;10.70;99.90;;;9.49;100.00;102306.56;3751104;22;22335;-88
2021/08/09 03:24:46;;;;;;;2.27;1.00;;;10.50;99.90;;;9.48;100.00;102311.06;1836619;22;22795;-89
2021/08/09 03:27:14;;;;;;;2.07;1.47;;;11.30;99.90;;;9.49;100.00;102314.59;3584720;22;20303;-87
2021/08/09 03:29:42;;;;;;;1.20;1.00;;;11.50;99.90;;;9.42;100.00;102314.13;1745991;22;22690;-86
2021/08/09 03:32:12;;;;;;;1.63;1.10;;;11.70;99.90;;;9.44;100.00;102327.41;2982676;22;22523;-87
2021/08/09 03:35:07;;;;;;;1.20;1.10;;;9.90;99.90;;;9.41;100.00;102323.09;2649718;22;20240;-88
2021/08/09 03:37:44;;;;;;;1.17;1.07;;;10.50;99.90;;;9.35;100.00;102318.19;1984804;22;21191;-84
2021/08/09 03:40:13;;;;;;;1.63;1.27;;;10.50;99.90;;;9.33;100.00;102320.94;3741231;22;22238;-87
2021/08/09 03:43:16;;;;;;;1.27;1.17;;;10.50;99.90;;;9.28;100.00;102349.75;3223417;22;20254;-90
2021/08/09 03:45:52;;;;;;;2.00;1.07;;;11.80;99.90;;;9.24;100.00;102380.31;3470992;22;20308;-84
2021/08/09 03:48:19;;;;;;;1.33;1.23;;;11.60;99.90;;;9.22;100.00;102392.06;3763471;22;20666;-91
2021/08/09 03:51:24;;;;;;;1.83;1.23;;;11.60;99.90;;;9.29;100.00;102418.25;3138273;22;20251;-92
2021/08/09 03:54:00;;;;;;;1.10;0.93;;;10.40;99.90;;;9.32;100.00;102433.25;3852327;22;23778;-85
2021/08/09 03:56:28;;;;;;;2.57;1.40;;;10.40;99.90;;;9.24;100.00;102438.22;3805315;22;21695;-84
2021/08/09 03:59:32;;;;;;;1.30;1.20;;;10.90;99.90;;;9.21;100.00;102441.09;3815987;22;20281;-88
2021/08/09 04:02:14;;;;;;;1.97;1.60;;;10.40;99.90;;;9.25;100.00;102456.84;1933468;22;21952;-88
2021/08/09 04:04:43;;;;;;;1.53;1.30;;;10.00;99.90;;;9.33;100.00;102462.53;3751695;22;22640;-88
2021/08/09 04:07:14;;;;;;;1.77;1.37;;;10.40;99.90;;;9.54;100.00;102454.09;3350566;22;20244;31
2021/08/09 04:09:44;;;;;;;2.77;1.50;;;10.40;99.90;;;9.64;100.00;102425.84;3097583;22;22339;-88
2021/08/09 04:12:13;;;;;;;1.67;1.40;;;10.40;99.90;;;9.78;100.00;102391.00;2737309;22;20333;-88
2021/08/09 04:14:44;;;;;;;1.67;1.30;;;10.40;99.90;;;9.99;100.00;102353.97;3476336;22;22159;-88
2021/08/09 04:17:38;;;;;;;1.63;1.30;;;10.70;99.90;;;10.08;100.00;102315.88;4028409;22;20239;-87
2021/08/09 04:20:16;;;;;;;2.80;1.57;;;11.60;99.90;;;9.84;100.00;102272.97;1798027;22;22705;31
2021/08/09 04:22:44;;;;;;;1.40;1.30;;;10.60;99.90;;;9.84;100.00;102248.91;2020917;22;23697;-85
2021/08/09 04:25:13;;;;;;;1.37;1.10;;;11.40;99.90;;;9.98;100.00;102250.63;1858840;22;20406;-86
2021/08/09 04:27:41;;;;;;;1.40;1.30;;;11.10;99.90;;;10.21;100.00;102251.72;2737696;22;22348;-90
2021/08/09 04:30:12;;;;;;;1.77;1.40;;;11.00;99.90;;;10.22;100.00;102224.00;3118242;22;20235;-88
2021/08/09 04:32:45;;;;;;;1.50;1.40;;;10.80;99.90;;;10.29;100.00;102207.41;3505873;22;22217;-89
2021/08/09 04:35:15;;;;;;;2.20;1.50;;;10.80;99.90;;;10.57;100.00;102198.25;1986841;22;21243;-85
2021/08/09 04:37:49;;;;;;;1.13;1.03;;;12.20;99.90;;;10.77;100.00;102176.19;3686452;22;22236;-88
2021/08/09 04:40:52;;;;;;;1.90;1.30;;;11.00;99.90;;;10.92;100.00;102149.25;2866120;22;20341;-89
2021/08/09 04:43:31;;;;;;;1.80;1.30;;;11.90;99.90;;;11.14;100.00;102120.72;3405763;22;22248;-88
2021/08/09 04:45:58;;;;;;;2.53;1.20;;;11.20;99.90;;;11.05;100.00;102077.72;3855342;22;20788;-86
2021/08/09 04:48:32;;;;;;;1.40;0.90;;;11.30;99.90;;;11.28;100.00;102050.00;3987017;22;20240;-88
2021/08/09 04:51:35;;;;;;;1.40;1.30;;;11.40;99.90;;;11.51;100.00;102003.47;3409420;22;20887;-84
2021/08/09 04:54:12;;;;;;;1.40;1.13;;;11.60;99.90;;;11.57;100.00;101947.66;3768954;22;23030;-88
2021/08/09 04:56:39;;;;;;;3.10;1.40;;;11.70;99.90;;;11.88;100.00;101894.09;2612533;22;20254;-88
2021/08/09 04:59:08;;;;;;;2.00;1.27;;;11.80;99.90;;;11.94;100.00;101833.72;2650685;22;20738;-88
2021/08/09 05:02:14;;;;;;;0.77;0.60;;;12.00;99.90;;;11.94;100.00;101750.56;3121439;22;20928;31
2021/08/09 05:04:49;;;;;;;1.07;0.97;;;12.80;99.90;;;11.82;100.00;101673.84;2716196;22;21133;-84
2021/08/09 05:07:18;;;;;;;1.47;1.37;;;12.30;99.90;;;11.94;100.00;101613.78;4033086;22;20248;-87
2021/08/09 05:09:46;;;;;;;1.33;1.23;;;13.00;99.90;;;12.31;100.00;101573.78;3064260;22;22405;-87
2021/08/09 05:12:17;;;;;;;1.53;0.90;;;13.80;99.90;;;12.49;100.00;101529.16;1741630;22;22752;-88
2021/08/09 05:14:49;;;;;;;1.30;1.17;;;12.70;99.90;;;12.57;100.00;101474.75;1757391;22;21172;-88
2021/08/09 05:17:16;;;;;;;0.70;0.60;;;12.80;99.90;;;12.52;100.00;101424.16;4005113;22;20248;-88
2021/08/09 05:19:43;;;;;;;5.50;1.20;;;12.90;99.90;;;12.66;100.00;101373.69;1762534;22;20671;31
2021/08/09 05:22:11;;;;;;;0.70;0.70;;;13.50;99.90;;;12.38;100.00;101317.25;2847558;22;21045;-83
2021/08/09 05:24:40;;;;;;;1.20;0.90;;;14.10;99.90;;;12.29;100.00;101280.53;3826090;22;20294;-88
2021/08/09 05:27:35;;;;;;;1.23;0.87;;;13.40;99.90;;;12.23;100.00;101254.31;3775133;22;22504;-89
2021/08/09 05:30:13;;;;;;;3.10;1.17;;;13.50;99.90;;;12.42;100.00;101234.59;3788476;22;20230;-86
2021/08/09 05:33:08;;;;;;;1.00;0.87;;;13.60;99.90;;;12.54;100.00;101212.78;2075689;22;86087;-87
2021/08/09 05:35:44;;;;;;;1.03;0.80;;;13.70;99.90;;;13.08;100.00;101191.44;3338950;22;24153;-84
2021/08/09 05:38:12;;;;;;;2.77;1.13;;;14.90;99.90;;;13.46;100.00;101155.34;4013489;22;23724;-85
2021/08/09 05:40:42;;;;;;;1.53;1.07;;;13.90;99.90;;;13.44;100.00;101111.66;3774415;22;23554;-87
2021/08/09 05:43:09;;;;;;;2.47;1.17;;;14.10;99.90;;;13.30;100.00;101076.28;4028031;22;22425;-86
2021/08/09 05:45:38;;;;;;;1.03;1.00;;;14.30;99.90;;;13.18;100.00;101041.75;3719715;22;21092;-86
2021/08/09 05:48:07;;;;;;;1.30;0.90;;;13.70;99.90;;;13.48;100.00;101024.28;3522619;22;20305;31
2021/08/09 05:50:36;;;;;;;0.67;0.67;;;14.60;99.90;;;13.91;100.00;101004.50;3995971;22;22177;-86
2021/08/09 05:53:08;;;;;;;1.00;0.77;;;14.80;99.90;;;14.32;100.00;100959.72;3872341;22;22495;-86
2021/08/09 05:55:37;;;;;;;0.97;0.70;;;14.90;99.90;;;14.66;100.00;100901.19;2023163;22;21049;31
2021/08/09 05:58:08;;;;;;;3.70;1.10;;;15.20;99.90;;;14.71;100.00;100844.94;3700407;22;24727;-83
2021/08/09 06:00:38;;;;;;;1.42;0.93;;;15.40;99.90;;;14.93;100.00;100767.94;3838534;22;22196;-86
2021/08/09 06:03:12;;;;;;;4.78;1.15;;;15.60;99.90;;;15.02;100.00;100694.13;2792830;22;20415;-87
2021/08/09 06:06:26;;;;;;;1.13;0.88;;;15.80;99.90;;;15.05;100.00;100633.66;3246361;22;21396;-85
2021/08/09 06:09:08;;;;;;;0.93;0.75;;;16.10;99.90;;;15.28;100.00;100580.56;3076654;22;23098;-86
2021/08/09 06:11:40;;;;;;;1.83;0.88;;;16.30;99.90;;;15.28;100.00;100542.00;3658784;22;21027;-85
2021/08/09 06:14:07;;;;;;;0.70;0.70;;;16.50;99.90;;;15.61;100.00;100527.19;3754037;22;20351;-86
2021/08/09 06:16:36;;;;;;;0.82;0.75;;;16.70;99.90;;;15.38;100.00;100491.34;3616711;39;20320;-85
2021/08/09 06:19:05;;;;;;;1.98;1.02;;;16.80;99.90;;;15.48;100.00;100473.03;3643010;22;20673;-86
2021/08/09 06:21:35;;;;;;;1.58;0.80;;;17.00;99.90;;;15.72;100.00;100444.97;3624294;22;20438;-85
2021/08/09 06:24:02;;;;;;;1.35;0.70;;;17.10;99.90;;;16.02;100.00;100437.66;3637726;22;20232;-85
2021/08/09 06:27:05;;;;;;;0.60;0.60;;;17.30;99.90;;;16.30;100.00;100410.78;3669314;22;20317;-82
2021/08/09 06:30:18;;;;;;;0.90;0.88;;;18.40;99.90;;;16.25;100.00;100354.66;3579341;39;20674;-84
2021/08/09 06:33:32;;;;;;;1.23;0.85;;;17.80;99.90;;;16.51;100.00;100306.28;3576315;39;20382;-83
2021/08/09 06:36:44;;;;;;;1.77;0.82;;;17.90;99.90;;;17.00;100.00;100272.09;3580993;39;20310;-84
2021/08/09 06:39:56;;;;;;;0.32;0.32;;;18.20;99.90;;;16.99;100.00;100217.22;3572103;39;20562;-84
2021/08/09 06:43:08;;;;;;;0.82;0.80;;;18.50;99.90;;;17.13;100.00;100167.56;3665221;22;20463;-82
2021/08/09 06:46:31;;;;;;;2.15;0.80;;;18.80;99.90;;;17.32;100.00;100121.84;3607893;39;20234;-84
2021/08/09 06:49:45;;;;;;;2.22;0.93;;;19.70;99.90;;;17.34;100.00;100098.97;3601620;39;20687;-81
2021/08/09 06:52:57;;;;;;;0.65;0.65;;;19.70;99.90;;;17.28;100.00;100074.63;3595814;39;20248;-85
2021/08/09 06:56:13;;;;;;;0.95;0.70;;;19.60;99.90;;;16.99;100.00;100062.31;3601248;39;20660;-82
2021/08/09 06:59:26;;;;;;;0.90;0.60;;;19.70;99.90;;;16.94;100.00;100038.59;3593668;39;20351;-84
2021/08/09 07:02:38;;;;;;;0.50;0.50;;;19.60;99.90;;;16.97;100.00;100002.22;3571525;39;20317;-84
2021/08/09 07:05:16;;;;;;;2.65;0.85;;;19.60;99.90;;;16.95;100.00;99990.78;3648307;22;20264;-82
2021/08/09 07:07:50;;;;;;;1.33;0.75;;;19.50;99.90;;;17.04;100.00;99992.25;3578824;39;20294;-80
2021/08/09 07:10:18;;;;;;;2.13;1.10;;;19.50;99.90;;;17.06;100.00;99987.50;3571555;39;20528;-83
2021/08/09 07:12:45;;;;;;;0.90;0.70;;;19.50;99.90;;;17.08;100.00;99961.88;3588372;39;20753;-82
2021/08/09 07:15:13;;;;;;;0.32;0.32;;;19.50;99.90;;;17.43;100.00;99950.84;3578913;39;20265;-82
2021/08/09 07:17:42;;;;;;;1.48;0.68;;;19.70;99.90;;;17.39;100.00;99928.81;3572703;39;20538;-85
2021/08/09 07:20:14;;;;;;;1.75;0.80;;;20.40;99.90;;;17.34;100.00;99895.31;3617299;22;20327;-81
2021/08/09 07:22:45;;;;;;;1.00;0.70;;;19.80;99.90;;;17.21;100.00;99845.63;3600406;39;20261;-84
2021/08/09 07:25:16;;;;;;;0.68;0.68;;;19.90;99.90;;;17.49;100.00;99818.28;3581046;39;20248;-85
2021/08/09 07:27:46;;;;;;;1.27;0.73;;;19.90;99.90;;;17.37;100.00;99730.75;3579943;39;20352;-82
2021/08/09 07:30:15;;;;;;;0.90;0.73;;;20.50;99.90;;;17.34;100.00;99652.75;3579523;39;20739;-82
2021/08/09 07:32:44;;;;;;;0.50;0.50;;;21.00;99.90;;;17.39;100.00;99625.91;3579452;39;20653;-82
2021/08/09 07:35:13;;;;;;;0.68;0.68;;;20.00;99.90;;;17.45;100.00;100244.41;3633921;22;20325;-84
2021/08/09 07:37:41;;;;;;;0.95;0.55;;;20.00;99.90;;;17.43;100.00;100253.78;3645990;22;1157123;-85
2021/08/09 07:40:11;;;;;;;0.85;0.70;;;20.00;99.90;;;17.54;100.00;100258.59;3580137;39;20306;-85
2021/08/09 07:42:39;;;;;;;0.28;0.25;;;20.00;99.90;;;17.68;100.00;100265.72;3628928;22;20275;-85
2021/08/09 07:45:08;;;;;;;1.80;0.75;;;20.00;99.90;;;17.75;100.00;100261.19;3589171;39;20892;-84
2021/08/09 07:47:35;;;;;;;0.50;0.50;;;20.10;99.90;;;17.90;100.00;100315.97;3593265;39;20574;-86
2021/08/09 07:50:06;;;;;;;2.30;0.40;;;20.10;99.70;;;17.81;100.00;100340.69;3585855;39;20247;-82
2021/08/09 07:52:33;;;;;;;2.15;0.75;;;20.20;98.50;;;17.72;100.00;100339.22;3593982;39;20514;-82
2021/08/09 07:55:01;;;;;;;0.77;0.30;;;20.30;98.00;;;18.08;100.00;100333.47;3590401;39;20294;-83
2021/08/09 07:57:30;;;;;;;0.52;0.52;;;20.30;98.40;;;18.06;100.00;100339.09;3593098;39;20615;-85
2021/08/09 07:59:57;;;;;;;0.88;0.35;;;20.40;98.00;;;18.06;100.00;100346.38;3585559;39;20507;-84
2021/08/09 08:02:24;;;;;;;0.38;0.28;;;20.80;97.90;;;18.17;100.00;100340.41;3584765;39;20457;-82
2021/08/09 08:04:52;;;;;;;0.43;0.32;;;21.20;97.80;;;18.21;100.00;100358.72;3623127;22;20345;-85
2021/08/09 08:07:20;;;;;;;0.40;0.40;;;20.60;97.00;;;18.19;100.00;100392.44;3579019;39;20279;-85
2021/08/09 08:09:48;;;;;;;0.68;0.50;;;20.70;96.30;;;18.56;100.00;100394.59;3562920;39;20852;-85
2021/08/09 08:12:16;;;;;;;0.90;0.50;;;21.00;96.90;;;18.37;100.00;100403.53;3563678;39;20263;-85
2021/08/09 08:14:45;;;;;;;1.60;0.63;;;20.80;96.30;;;18.23;100.00;100399.97;3578195;39;20549;-83
2021/08/09 08:17:14;;;;;;;0.85;0.63;;;20.80;95.20;;;18.36;100.00;100406.47;3567613;39;20242;-86
2021/08/09 08:19:42;;;;;;;0.40;0.40;;;21.40;95.00;;;18.52;100.00;100411.50;3573667;39;20260;-84
2021/08/09 08:22:09;;;;;;;1.55;0.50;;;20.90;95.10;;;18.48;100.00;100427.31;3569071;39;20280;-84
2021/08/09 08:24:39;;;;;;;1.02;0.55;;;21.30;94.40;;;18.72;100.00;100439.47;3569048;39;20256;-83
2021/08/09 08:27:06;;;;;;;2.20;0.43;;;21.60;94.60;;;18.98;100.00;100449.50;3619097;22;20280;-86
2021/08/09 08:29:34;;;;;;;0.47;0.43;;;21.20;94.40;;;18.90;100.00;100450.53;3653798;22;20271;-88
2021/08/09 08:32:03;;;;;;;1.08;0.50;;;22.10;94.20;;;18.72;100.00;100457.59;3598808;39;20811;-84
2021/08/09 08:34:30;;;;;;;0.63;0.43;;;21.40;93.40;;;19.58;100.00;100436.69;3588816;39;21952;-84
2021/08/09 08:36:58;;;;;;;0.55;0.55;;;21.90;93.80;;;19.70;100.00;100462.13;3573994;39;20385;-83
2021/08/09 08:39:25;;;;;;;1.85;0.85;;;22.80;93.70;;;20.24;100.00;100471.75;3603282;39;21369;-85
2021/08/09 08:41:53;;;;;;;0.32;0.32;;;22.30;92.90;;;20.26;100.00;100477.81;3588394;39;20247;-82
2021/08/09 08:44:21;;;;;;;0.52;0.38;;;22.40;92.30;;;20.64;100.00;100507.75;3585115;39;20588;-83
2021/08/09 08:46:50;;;;;;;0.60;0.35;;;22.70;91.40;;;20.26;100.00;100613.66;3599620;39;20278;-86
2021/08/09 08:49:21;;;;;;;0.38;0.38;;;23.10;87.30;;;20.57;100.00;100612.94;3598931;39;20704;-84
2021/08/09 08:51:50;;;;;;;0.40;0.38;;;23.30;86.40;;;20.93;100.00;100580.56;3594387;39;20900;-83
2021/08/09 08:54:20;;;;;;;0.20;0.20;;;23.60;83.80;;;20.91;100.00;100636.22;3589376;39;20392;-84
2021/08/09 08:56:48;;;;;;;1.08;0.65;;;24.60;83.30;;;20.98;100.00;100635.16;3596340;39;20354;-85
2021/08/09 08:59:16;;;;;;;0.73;0.50;;;23.90;79.00;;;21.26;100.00;100604.88;3595511;39;20255;-84
2021/08/09 09:01:45;;;;;;;0.25;0.25;;;24.20;77.70;;;20.53;100.00;100615.25;3594692;39;20321;-86
2021/08/09 09:04:28;;;;;;;0.35;0.28;;;24.30;70.30;;;20.33;100.00;100628.06;3600615;39;20544;-85
2021/08/09 09:07:00;;;;;;;0.52;0.40;;;24.30;68.10;;;20.18;100.00;100627.47;3603681;39;20236;-85
2021/08/09 09:09:29;;;;;;;0.22;0.20;;;25.10;66.90;;;20.22;100.00;100631.44;3597031;39;20595;-85
2021/08/09 09:11:57;;;;;;;2.55;0.50;;;25.00;67.60;;;19.60;100.00;100657.19;3599839;39;20625;-86
2021/08/09 09:14:28;;;;;;;0.30;0.30;;;23.90;63.00;;;19.34;100.00;100661.50;3598978;39;20512;-83
2021/08/09 09:16:56;;;;;;;0.20;0.20;;;24.60;64.30;;;19.87;100.00;100652.59;3607968;39;20253;-82
2021/08/09 09:19:36;;;;;;;1.02;0.45;;;24.10;66.20;;;20.42;100.00;100656.69;3635995;22;20248;-82
2021/08/09 09:22:07;;;;;;;0.20;0.20;;;23.40;68.00;;;21.62;100.00;100644.19;3587325;39;20719;-85
2021/08/09 09:24:35;;;;;;;0.40;0.35;;;23.60;69.20;;;21.64;100.00;100647.50;3614404;22;20464;-82
2021/08/09 09:27:08;;;;;;;0.28;0.17;;;24.80;69.60;;;21.63;100.00;100630.34;3601580;39;20290;-83
2021/08/09 09:29:39;;;;;;;2.15;0.47;;;24.10;67.80;;;21.17;100.00;100612.41;3604106;39;20259;-83
2021/08/09 09:32:18;;;;;;;0.45;0.43;;;25.00;65.00;;;21.70;100.00;100609.31;3593860;39;20287;-82
2021/08/09 09:34:52;;;;;;;0.73;0.35;;;24.60;65.90;;;20.97;100.00;100610.88;3594568;39;20267;-84
2021/08/09 09:37:26;;;;;;;1.15;0.52;;;24.80;60.00;;;21.18;100.00;100607.81;3586046;39;20615;-84
2021/08/09 09:39:54;;;;;;;0.35;0.30;;;25.10;60.70;;;21.03;100.00;100596.38;3589037;39;20245;-81
2021/08/09 09:42:33;;;;;;;0.20;0.10;;;24.80;59.80;;;21.10;100.00;100598.03;3584290;39;20488;-81
2021/08/09 09:45:20;;;;;;;0.47;0.40;;;24.80;60.60;;;20.78;100.00;100604.47;3599213;39;20402;-87
2021/08/09 09:48:04;;;;;;;0.20;0.17;;;24.90;60.00;;;20.45;100.00;100593.75;3596970;39;20275;-83
2021/08/09 09:50:34;;;;;;;0.60;0.47;;;24.70;58.60;;;20.00;100.00;100590.13;3592959;39;20266;-82
2021/08/09 09:53:16;;;;;;;1.10;0.40;;;24.40;57.70;;;19.99;100.00;100591.16;3660773;22;21158;-85
2021/08/09 09:55:45;;;;;;;1.50;0.80;;;24.10;58.70;;;19.96;100.00;100586.16;3589984;39;20256;-85
2021/08/09 09:58:12;;;;;;;0.20;0.20;;;24.10;59.70;;;19.93;100.00;100584.69;3568944;39;20338;-84
2021/08/09 10:00:41;;;;;;;0.85;0.32;;;23.70;60.50;;;19.83;100.00;100591.59;3577774;39;20647;-82
2021/08/09 10:03:09;;;;;;;4.57;0.50;;;24.00;61.40;;;19.83;100.00;100587.00;3574520;39;20263;-83
2021/08/09 10:05:40;;;;;;;0.35;0.20;;;23.90;62.70;;;19.78;100.00;100594.94;3628997;22;20670;-82
2021/08/09 10:08:13;;;;;;;3.42;0.40;;;23.00;61.90;;;19.70;100.00;100595.16;3604182;39;20305;-86
2021/08/09 10:10:43;;;;;;;0.90;0.40;;;23.00;61.70;;;19.88;100.00;100595.38;3597876;39;20436;-84
2021/08/09 10:13:12;;;;;;;0.25;0.25;;;22.80;62.70;;;20.05;100.00;100590.28;3579707;39;20474;-85
2021/08/09 10:15:39;;;;;;;0.30;0.30;;;22.80;64.00;;;20.04;100.00;100592.19;3586244;39;20260;-82
2021/08/09 10:18:09;;;;;;;2.50;0.52;;;22.80;64.80;;;19.94;100.00;100597.22;3575016;39;20276;-83
2021/08/09 10:20:37;;;;;;;0.80;0.40;;;22.90;64.50;;;20.22;100.00;100591.50;3583746;39;20360;-82
2021/08/09 10:23:06;;;;;;;4.10;0.82;;;22.90;65.00;;;20.36;100.00;100595.06;3582852;39;21020;-81
2021/08/09 10:25:51;;;;;;;0.77;0.50;;;23.10;64.90;;;20.57;100.00;100602.06;3597012;39;20247;-84
2021/08/09 10:28:19;;;;;;;0.40;0.30;;;23.20;65.00;;;20.69;100.00;100603.06;3583553;39;20263;-81
2021/08/09 10:30:46;;;;;;;0.43;0.40;;;23.50;64.70;;;21.06;100.00;100593.25;3583939;39;20344;-84
2021/08/09 10:33:15;;;;;;;0.40;0.40;;;23.70;65.40;;;20.48;100.00;100598.78;3583507;39;20355;-83
2021/08/09 10:36:04;;;;;;;1.80;0.47;;;23.90;63.20;;;21.05;100.00;100597.00;3583651;39;20679;-83
2021/08/09 10:38:38;;;;;;;0.38;0.32;;;24.10;63.20;;;20.93;100.00;100598.75;3593770;39;20664;-84
2021/08/09 10:41:30;;;;;;;1.63;0.40;;;24.10;63.30;;;20.83;100.00;100595.69;3585025;39;20271;-85
2021/08/09 10:44:23;;;;;;;1.33;0.50;;;24.30;63.00;;;20.92;100.00;100594.38;3584394;39;20494;-85
2021/08/09 10:46:52;;;;;;;0.38;0.32;;;24.40;63.20;;;21.05;100.00;100597.00;3587873;39;20369;-83
2021/08/09 10:49:58;;;;;;;0.68;0.40;;;24.60;62.30;;;21.01;100.00;100598.53;3587968;39;20819;-83
2021/08/09 10:52:37;;;;;;;0.43;0.25;;;24.50;60.70;;;21.03;100.00;100597.22;3595223;39;20441;-85
2021/08/09 10:55:48;;;;;;;1.60;0.70;;;24.50;61.10;;;21.07;100.00;100594.91;3595532;39;20763;-85